sensor_id;sensor_type;location;lat;lon;timestamp;pressure;altitude;pressure_sealevel;temperature;humidity
68594;BME280;55563;52.416;13.548;2023-04-09T00:00:35;102262.91;;;3.31;100.00
68594;BME280;55563;52.416;13.548;2023-04-09T00:02:36;102264.69;;;3.30;100.00
68594;BME280;55563;52.416;13.548;2023-04-09T00:04:36;102260.56;;;3.36;100.00
68594;BME280;55563;52.416;13.548;2023-04-09T00:06:37;102267.09;;;3.32;100.00
68594;BME280;55563;52.416;13.548;2023-04-09T00:08:38;102268.72;;;3.33;100.00
68594;BME280;55563;52.416;13.548;2023-04-09T00:10:38;102258.03;;;3.28;100.00
68594;BME280;55563;52.416;13.548;2023-04-09T00:12:39;102266.34;;;3.23;100.00
68594;BME280;55563;52.416;13.548;2023-04-09T00:14:40;102260.00;;;3.26;100.00
68594;BME280;55563;52.416;13.548;2023-04-09T00:16:41;102264.41;;;3.25;100.00
68594;BME280;55563;52.416;13.548;2023-04-09T00:21:02;102268.53;;;3.03;100.00
68594;BME280;55563;52.416;13.548;2023-04-09T00:23:03;102272.50;;;2.83;100.00
68594;BME280;55563;52.416;13.548;2023-04-09T00:25:04;102259.63;;;2.98;100.00
68594;BME280;55563;52.416;13.548;2023-04-09T00:27:05;102258.13;;;3.03;100.00
68594;BME280;55563;52.416;13.548;2023-04-09T00:29:06;102263.69;;;3.00;100.00
68594;BME280;55563;52.416;13.548;2023-04-09T00:31:06;102267.91;;;3.01;100.00
68594;BME280;55563;52.416;13.548;2023-04-09T00:33:07;102268.41;;;2.97;100.00
68594;BME280;55563;52.416;13.548;2023-04-09T00:35:08;102274.47;;;2.81;100.00
68594;BME280;55563;52.416;13.548;2023-04-09T00:37:09;102266.50;;;2.75;100.00
68594;BME280;55563;52.416;13.548;2023-04-09T00:39:10;102260.81;;;2.87;100.00
68594;BME280;55563;52.416;13.548;2023-04-09T00:41:10;102263.09;;;2.82;100.00
68594;BME280;55563;52.416;13.548;2023-04-09T00:43:11;102262.28;;;2.82;100.00
68594;BME280;55563;52.416;13.548;2023-04-09T00:45:11;102263.09;;;2.82;100.00
68594;BME280;55563;52.416;13.548;2023-04-09T00:47:12;102269.59;;;2.70;100.00
68594;BME280;55563;52.416;13.548;2023-04-09T00:49:13;102267.38;;;2.59;100.00
68594;BME280;55563;52.416;13.548;2023-04-09T00:51:14;102267.22;;;2.52;100.00
68594;BME280;55563;52.416;13.548;2023-04-09T00:53:15;102262.25;;;2.18;100.00
68594;BME280;55563;52.416;13.548;2023-04-09T00:55:17;102267.75;;;2.15;100.00
68594;BME280;55563;52.416;13.548;2023-04-09T00:57:18;102273.91;;;2.39;100.00
68594;BME280;55563;52.416;13.548;2023-04-09T00:59:19;102278.88;;;2.56;100.00
68594;BME280;55563;52.416;13.548;2023-04-09T01:01:20;102268.47;;;2.64;100.00
68594;BME280;55563;52.416;13.548;2023-04-09T01:03:20;102260.19;;;2.69;100.00
68594;BME280;55563;52.416;13.548;2023-04-09T01:05:23;102256.00;;;2.60;100.00
68594;BME280;55563;52.416;13.548;2023-04-09T01:12:41;102259.75;;;2.57;100.00
68594;BME280;55563;52.416;13.548;2023-04-09T01:14:56;102259.59;;;2.51;100.00
68594;BME280;55563;52.416;13.548;2023-04-09T01:17:04;102257.69;;;2.12;100.00
68594;BME280;55563;52.416;13.548;2023-04-09T01:19:14;102265.47;;;2.04;100.00
68594;BME280;55563;52.416;13.548;2023-04-09T01:21:23;102266.94;;;1.91;100.00
68594;BME280;55563;52.416;13.548;2023-04-09T01:23:46;102267.91;;;2.14;100.00
68594;BME280;55563;52.416;13.548;2023-04-09T01:26:06;102267.41;;;2.27;100.00
68594;BME280;55563;52.416;13.548;2023-04-09T01:28:30;102269.84;;;2.28;100.00
68594;BME280;55563;52.416;13.548;2023-04-09T01:30:32;102272.13;;;2.23;100.00
68594;BME280;55563;52.416;13.548;2023-04-09T01:32:33;102263.69;;;2.21;100.00
68594;BME280;55563;52.416;13.548;2023-04-09T01:34:36;102267.91;;;2.22;100.00
68594;BME280;55563;52.416;13.548;2023-04-09T01:36:39;102275.34;;;2.17;100.00
68594;BME280;55563;52.416;13.548;2023-04-09T01:38:41;102269.03;;;2.11;100.00
68594;BME280;55563;52.416;13.548;2023-04-09T01:40:42;102269.84;;;2.12;100.00
68594;BME280;55563;52.416;13.548;2023-04-09T01:42:44;102268.88;;;2.05;100.00
68594;BME280;55563;52.416;13.548;2023-04-09T01:44:45;102260.78;;;2.08;100.00
68594;BME280;55563;52.416;13.548;2023-04-09T01:46:46;102259.00;;;2.08;100.00
68594;BME280;55563;52.416;13.548;2023-04-09T01:48:48;102255.28;;;2.11;100.00
68594;BME280;55563;52.416;13.548;2023-04-09T01:50:49;102267.75;;;2.15;100.00
68594;BME280;55563;52.416;13.548;2023-04-09T01:52:50;102270.97;;;1.93;100.00
68594;BME280;55563;52.416;13.548;2023-04-09T01:54:51;102265.78;;;1.93;100.00
68594;BME280;55563;52.416;13.548;2023-04-09T01:56:52;102271.94;;;1.92;100.00
68594;BME280;55563;52.416;13.548;2023-04-09T01:58:52;102266.75;;;1.92;100.00
68594;BME280;55563;52.416;13.548;2023-04-09T02:00:58;102272.44;;;1.80;100.00
68594;BME280;55563;52.416;13.548;2023-04-09T02:03:05;102282.16;;;1.86;100.00
68594;BME280;55563;52.416;13.548;2023-04-09T02:05:08;102285.72;;;1.85;100.00
68594;BME280;55563;52.416;13.548;2023-04-09T02:07:17;102282.16;;;1.94;100.00
68594;BME280;55563;52.416;13.548;2023-04-09T02:09:20;102282.16;;;1.94;100.00
68594;BME280;55563;52.416;13.548;2023-04-09T02:11:22;102280.38;;;1.94;100.00
68594;BME280;55563;52.416;13.548;2023-04-09T02:13:24;102279.38;;;1.79;100.00
68594;BME280;55563;52.416;13.548;2023-04-09T02:15:30;102278.75;;;1.77;100.00
68594;BME280;55563;52.416;13.548;2023-04-09T02:17:34;102279.38;;;1.63;100.00
68594;BME280;55563;52.416;13.548;2023-04-09T02:19:42;102269.13;;;1.45;100.00
68594;BME280;55563;52.416;13.548;2023-04-09T02:21:45;102274.31;;;1.45;100.00
68594;BME280;55563;52.416;13.548;2023-04-09T02:23:45;102271.75;;;1.53;100.00
68594;BME280;55563;52.416;13.548;2023-04-09T02:25:46;102276.25;;;1.51;100.00
68594;BME280;55563;52.416;13.548;2023-04-09T02:27:47;102277.28;;;1.66;100.00
68594;BME280;55563;52.416;13.548;2023-04-09T02:29:48;102267.41;;;1.78;100.00
68594;BME280;55563;52.416;13.548;2023-04-09T02:31:49;102279.25;;;1.81;100.00
68594;BME280;55563;52.416;13.548;2023-04-09T02:33:52;102271.63;;;1.79;100.00
68594;BME280;55563;52.416;13.548;2023-04-09T02:35:54;102271.94;;;1.76;100.00
68594;BME280;55563;52.416;13.548;2023-04-09T02:37:54;102279.72;;;1.76;100.00
68594;BME280;55563;52.416;13.548;2023-04-09T02:39:55;102272.44;;;1.71;100.00
68594;BME280;55563;52.416;13.548;2023-04-09T02:41:56;102269.97;;;1.70;100.00
68594;BME280;55563;52.416;13.548;2023-04-09T02:43:57;102269.16;;;1.69;100.00
68594;BME280;55563;52.416;13.548;2023-04-09T02:45:59;102273.22;;;1.64;100.00
68594;BME280;55563;52.416;13.548;2023-04-09T02:48:00;102262.03;;;1.55;100.00
68594;BME280;55563;52.416;13.548;2023-04-09T02:50:04;102262.00;;;1.47;100.00
68594;BME280;55563;52.416;13.548;2023-04-09T02:52:08;102261.69;;;1.50;100.00
68594;BME280;55563;52.416;13.548;2023-04-09T02:54:09;102265.91;;;1.51;100.00
68594;BME280;55563;52.416;13.548;2023-04-09T02:56:10;102264.25;;;1.34;100.00
68594;BME280;55563;52.416;13.548;2023-04-09T02:58:11;102267.13;;;1.23;100.00
68594;BME280;55563;52.416;13.548;2023-04-09T03:00:12;102268.63;;;1.34;100.00
68594;BME280;55563;52.416;13.548;2023-04-09T03:02:13;102258.88;;;1.36;100.00
68594;BME280;55563;52.416;13.548;2023-04-09T03:04:14;102267.81;;;1.41;100.00
68594;BME280;55563;52.416;13.548;2023-04-09T03:06:14;102264.41;;;1.41;100.00
68594;BME280;55563;52.416;13.548;2023-04-09T03:08:15;102271.03;;;1.35;100.00
68594;BME280;55563;52.416;13.548;2023-04-09T03:10:16;102258.19;;;1.17;100.00
68594;BME280;55563;52.416;13.548;2023-04-09T03:12:18;102263.81;;;1.05;100.00
68594;BME280;55563;52.416;13.548;2023-04-09T03:14:18;102264.34;;;0.82;100.00
68594;BME280;55563;52.416;13.548;2023-04-09T03:16:19;102268.13;;;0.96;100.00
68594;BME280;55563;52.416;13.548;2023-04-09T03:18:20;102259.28;;;1.07;100.00
68594;BME280;55563;52.416;13.548;2023-04-09T03:20:20;102244.91;;;1.12;100.00
68594;BME280;55563;52.416;13.548;2023-04-09T03:22:21;102251.25;;;1.18;100.00
68594;BME280;55563;52.416;13.548;2023-04-09T03:24:25;102238.16;;;1.19;100.00
68594;BME280;55563;52.416;13.548;2023-04-09T03:26:27;102245.41;;;1.16;100.00
68594;BME280;55563;52.416;13.548;2023-04-09T03:28:28;102242.16;;;1.14;100.00
68594;BME280;55563;52.416;13.548;2023-04-09T03:30:29;102249.59;;;1.17;100.00
68594;BME280;55563;52.416;13.548;2023-04-09T03:32:31;102237.00;;;1.22;100.00
68594;BME280;55563;52.416;13.548;2023-04-09T03:34:32;102242.97;;;1.14;100.00
68594;BME280;55563;52.416;13.548;2023-04-09T03:36:33;102243.94;;;1.13;100.00
68594;BME280;55563;52.416;13.548;2023-04-09T03:38:36;102246.34;;;1.07;100.00
68594;BME280;55563;52.416;13.548;2023-04-09T03:40:43;102254.69;;;0.93;100.00
68594;BME280;55563;52.416;13.548;2023-04-09T03:42:44;102256.47;;;0.92;100.00
68594;BME280;55563;52.416;13.548;2023-04-09T03:44:47;102252.31;;;0.99;100.00
68594;BME280;55563;52.416;13.548;2023-04-09T03:46:56;102255.72;;;1.00;100.00
68594;BME280;55563;52.416;13.548;2023-04-09T03:48:58;102251.50;;;1.07;100.00
68594;BME280;55563;52.416;13.548;2023-04-09T03:51:11;102251.50;;;1.07;100.00
68594;BME280;55563;52.416;13.548;2023-04-09T03:53:12;102251.97;;;1.02;100.00
68594;BME280;55563;52.416;13.548;2023-04-09T03:55:14;102245.16;;;0.93;100.00
68594;BME280;55563;52.416;13.548;2023-04-09T03:57:15;102251.28;;;0.58;100.00
68594;BME280;55563;52.416;13.548;2023-04-09T03:59:18;102257.06;;;0.52;100.00
68594;BME280;55563;52.416;13.548;2023-04-09T04:01:22;102258.69;;;0.53;100.00
68594;BME280;55563;52.416;13.548;2023-04-09T04:03:28;102255.19;;;0.36;100.00
68594;BME280;55563;52.416;13.548;2023-04-09T04:05:49;102253.13;;;0.66;100.00
68594;BME280;55563;52.416;13.548;2023-04-09T04:07:51;102251.06;;;0.77;100.00
68594;BME280;55563;52.416;13.548;2023-04-09T04:09:59;102258.94;;;0.68;100.00
68594;BME280;55563;52.416;13.548;2023-04-09T04:12:00;102249.72;;;0.65;100.00
68594;BME280;55563;52.416;13.548;2023-04-09T04:14:15;102255.97;;;0.63;100.00
68594;BME280;55563;52.416;13.548;2023-04-09T04:16:19;102260.66;;;0.59;100.00
68594;BME280;55563;52.416;13.548;2023-04-09T04:18:20;102264.53;;;0.55;100.00
68594;BME280;55563;52.416;13.548;2023-04-09T04:20:24;102262.03;;;0.71;100.00
68594;BME280;55563;52.416;13.548;2023-04-09T04:22:33;102263.63;;;0.72;100.00
68594;BME280;55563;52.416;13.548;2023-04-09T04:24:34;102264.97;;;0.76;100.00
68594;BME280;55563;52.416;13.548;2023-04-09T04:26:36;102263.50;;;0.74;100.00
68594;BME280;55563;52.416;13.548;2023-04-09T04:28:38;102265.22;;;0.65;100.00
68594;BME280;55563;52.416;13.548;2023-04-09T04:30:41;102268.78;;;0.64;100.00
68594;BME280;55563;52.416;13.548;2023-04-09T04:32:42;102279.59;;;0.60;100.00
68594;BME280;55563;52.416;13.548;2023-04-09T04:34:48;102278.31;;;0.64;100.00
68594;BME280;55563;52.416;13.548;2023-04-09T04:36:56;102289.72;;;0.79;100.00
68594;BME280;55563;52.416;13.548;2023-04-09T04:38:57;102296.56;;;0.88;100.00
68594;BME280;55563;52.416;13.548;2023-04-09T04:41:14;102296.56;;;0.88;100.00
68594;BME280;55563;52.416;13.548;2023-04-09T04:43:22;102297.72;;;0.94;100.00
68594;BME280;55563;52.416;13.548;2023-04-09T04:45:26;102306.38;;;0.76;100.00
68594;BME280;55563;52.416;13.548;2023-04-09T04:47:31;102304.84;;;0.66;100.00
68594;BME280;55563;52.416;13.548;2023-04-09T04:49:32;102304.91;;;0.74;100.00
68594;BME280;55563;52.416;13.548;2023-04-09T04:51:35;102312.41;;;0.85;100.00
68594;BME280;55563;52.416;13.548;2023-04-09T04:53:41;102312.81;;;0.98;100.00
68594;BME280;55563;52.416;13.548;2023-04-09T04:55:46;102306.81;;;0.98;100.00
68594;BME280;55563;52.416;13.548;2023-04-09T04:57:50;102320.00;;;0.86;100.00
68594;BME280;55563;52.416;13.548;2023-04-09T04:59:54;102317.78;;;0.92;100.00
68594;BME280;55563;52.416;13.548;2023-04-09T05:01:55;102326.66;;;0.89;100.00
68594;BME280;55563;52.416;13.548;2023-04-09T05:03:56;102331.16;;;0.87;100.00
68594;BME280;55563;52.416;13.548;2023-04-09T05:06:06;102329.34;;;0.79;100.00
68594;BME280;55563;52.416;13.548;2023-04-09T05:08:14;102340.81;;;0.77;100.00
68594;BME280;55563;52.416;13.548;2023-04-09T05:10:15;102333.81;;;0.69;100.00
68594;BME280;55563;52.416;13.548;2023-04-09T05:12:17;102340.84;;;0.59;100.00
68594;BME280;55563;52.416;13.548;2023-04-09T05:14:24;102342.72;;;0.67;100.00
68594;BME280;55563;52.416;13.548;2023-04-09T05:16:26;102344.63;;;0.65;100.00
68594;BME280;55563;52.416;13.548;2023-04-09T05:18:34;102333.03;;;0.77;100.00
68594;BME280;55563;52.416;13.548;2023-04-09T05:20:35;102345.75;;;0.88;100.00
68594;BME280;55563;52.416;13.548;2023-04-09T05:22:42;102345.25;;;0.84;100.00
68594;BME280;55563;52.416;13.548;2023-04-09T05:24:43;102344.84;;;0.71;100.00
68594;BME280;55563;52.416;13.548;2023-04-09T05:26:44;102353.50;;;0.88;100.00
68594;BME280;55563;52.416;13.548;2023-04-09T05:28:45;102351.28;;;0.93;100.00
68594;BME280;55563;52.416;13.548;2023-04-09T05:30:51;102356.22;;;1.04;100.00
68594;BME280;55563;52.416;13.548;2023-04-09T05:32:52;102351.50;;;1.00;100.00
68594;BME280;55563;52.416;13.548;2023-04-09T05:34:55;102344.59;;;1.16;100.00
68594;BME280;55563;52.416;13.548;2023-04-09T05:36:55;102349.06;;;1.32;100.00
68594;BME280;55563;52.416;13.548;2023-04-09T05:38:58;102352.19;;;1.44;100.00
68594;BME280;55563;52.416;13.548;2023-04-09T05:40:59;102351.50;;;1.34;100.00
68594;BME280;55563;52.416;13.548;2023-04-09T05:43:00;102353.66;;;1.54;100.00
68594;BME280;55563;52.416;13.548;2023-04-09T05:45:10;102345.59;;;1.57;100.00
68594;BME280;55563;52.416;13.548;2023-04-09T05:47:18;102342.94;;;1.41;100.00
68594;BME280;55563;52.416;13.548;2023-04-09T05:49:30;102334.09;;;1.68;100.00
68594;BME280;55563;52.416;13.548;2023-04-09T05:51:31;102338.84;;;1.81;100.00
68594;BME280;55563;52.416;13.548;2023-04-09T05:53:33;102338.56;;;2.00;100.00
68594;BME280;55563;52.416;13.548;2023-04-09T05:55:33;102335.69;;;2.11;100.00
68594;BME280;55563;52.416;13.548;2023-04-09T05:57:36;102340.88;;;2.19;100.00
68594;BME280;55563;52.416;13.548;2023-04-09T05:59:38;102333.41;;;2.32;100.00
68594;BME280;55563;52.416;13.548;2023-04-09T06:01:38;102331.31;;;2.44;100.00
68594;BME280;55563;52.416;13.548;2023-04-09T06:03:39;102320.25;;;2.50;100.00
68594;BME280;55563;52.416;13.548;2023-04-09T06:05:40;102329.16;;;2.55;100.00
68594;BME280;55563;52.416;13.548;2023-04-09T06:07:41;102325.28;;;2.59;100.00
68594;BME280;55563;52.416;13.548;2023-04-09T06:09:42;102329.16;;;2.72;100.00
68594;BME280;55563;52.416;13.548;2023-04-09T06:11:44;102328.19;;;2.73;100.00
68594;BME280;55563;52.416;13.548;2023-04-09T06:13:45;102337.25;;;2.85;100.00
68594;BME280;55563;52.416;13.548;2023-04-09T06:15:46;102332.28;;;2.43;100.00
68594;BME280;55563;52.416;13.548;2023-04-09T06:17:48;102342.16;;;2.47;100.00
68594;BME280;55563;52.416;13.548;2023-04-09T06:19:49;102342.16;;;2.47;100.00
68594;BME280;55563;52.416;13.548;2023-04-09T06:21:50;102347.81;;;2.51;100.00
68594;BME280;55563;52.416;13.548;2023-04-09T06:23:50;102351.72;;;2.14;100.00
68594;BME280;55563;52.416;13.548;2023-04-09T06:25:52;102350.59;;;2.49;100.00
68594;BME280;55563;52.416;13.548;2023-04-09T06:27:53;102352.69;;;2.62;100.00
68594;BME280;55563;52.416;13.548;2023-04-09T06:29:53;102354.16;;;2.56;100.00
68594;BME280;55563;52.416;13.548;2023-04-09T06:31:54;102359.50;;;2.71;100.00
68594;BME280;55563;52.416;13.548;2023-04-09T06:33:55;102357.06;;;2.70;100.00
68594;BME280;55563;52.416;13.548;2023-04-09T06:35:56;102367.91;;;2.89;100.00
68594;BME280;55563;52.416;13.548;2023-04-09T06:37:56;102365.44;;;3.04;100.00
68594;BME280;55563;52.416;13.548;2023-04-09T06:39:57;102363.22;;;2.85;100.00
68594;BME280;55563;52.416;13.548;2023-04-09T06:41:58;102369.34;;;3.00;100.00
68594;BME280;55563;52.416;13.548;2023-04-09T06:44:10;102365.28;;;2.97;100.00
68594;BME280;55563;52.416;13.548;2023-04-09T06:46:11;102372.91;;;3.07;100.00
68594;BME280;55563;52.416;13.548;2023-04-09T06:48:13;102366.53;;;3.26;100.00
68594;BME280;55563;52.416;13.548;2023-04-09T06:50:14;102364.41;;;3.29;100.00
68594;BME280;55563;52.416;13.548;2023-04-09T06:52:15;102368.59;;;3.38;100.00
68594;BME280;55563;52.416;13.548;2023-04-09T06:54:16;102366.16;;;3.37;100.00
68594;BME280;55563;52.416;13.548;2023-04-09T06:56:16;102369.25;;;3.40;100.00
68594;BME280;55563;52.416;13.548;2023-04-09T06:58:17;102372.13;;;3.45;100.00
68594;BME280;55563;52.416;13.548;2023-04-09T07:00:18;102369.94;;;3.65;100.00
68594;BME280;55563;52.416;13.548;2023-04-09T07:02:19;102369.66;;;3.52;100.00
68594;BME280;55563;52.416;13.548;2023-04-09T07:04:20;102364.34;;;3.76;100.00
68594;BME280;55563;52.416;13.548;2023-04-09T07:06:21;102374.59;;;3.78;100.00
68594;BME280;55563;52.416;13.548;2023-04-09T07:08:22;102372.22;;;3.68;100.00
68594;BME280;55563;52.416;13.548;2023-04-09T07:10:22;102382.19;;;3.48;100.00
68594;BME280;55563;52.416;13.548;2023-04-09T07:12:32;102384.19;;;3.77;100.00
68594;BME280;55563;52.416;13.548;2023-04-09T07:14:33;102377.06;;;3.71;100.00
68594;BME280;55563;52.416;13.548;2023-04-09T07:16:34;102384.41;;;3.68;100.00
68594;BME280;55563;52.416;13.548;2023-04-09T07:18:35;102374.28;;;4.04;100.00
68594;BME280;55563;52.416;13.548;2023-04-09T07:20:35;102374.81;;;4.22;100.00
68594;BME280;55563;52.416;13.548;2023-04-09T07:22:36;102371.19;;;4.31;100.00
68594;BME280;55563;52.416;13.548;2023-04-09T07:24:37;102372.53;;;4.19;100.00
68594;BME280;55563;52.416;13.548;2023-04-09T07:26:37;102380.34;;;4.42;100.00
68594;BME280;55563;52.416;13.548;2023-04-09T07:28:38;102376.16;;;4.41;100.00
68594;BME280;55563;52.416;13.548;2023-04-09T07:30:39;102378.97;;;4.31;100.00
68594;BME280;55563;52.416;13.548;2023-04-09T07:32:40;102376.44;;;4.46;100.00
68594;BME280;55563;52.416;13.548;2023-04-09T07:34:42;102369.19;;;4.70;100.00
68594;BME280;55563;52.416;13.548;2023-04-09T07:36:43;102367.53;;;4.77;100.00
68594;BME280;55563;52.416;13.548;2023-04-09T07:38:45;102365.91;;;4.91;100.00
68594;BME280;55563;52.416;13.548;2023-04-09T07:40:45;102362.97;;;4.79;100.00
68594;BME280;55563;52.416;13.548;2023-04-09T07:42:46;102364.41;;;4.97;100.00
68594;BME280;55563;52.416;13.548;2023-04-09T07:44:48;102366.09;;;5.19;100.00
68594;BME280;55563;52.416;13.548;2023-04-09T07:46:51;102352.88;;;5.50;100.00
68594;BME280;55563;52.416;13.548;2023-04-09T07:48:52;102349.50;;;5.70;100.00
68594;BME280;55563;52.416;13.548;2023-04-09T07:50:53;102342.38;;;5.94;100.00
68594;BME280;55563;52.416;13.548;2023-04-09T07:52:53;102341.81;;;5.98;100.00
68594;BME280;55563;52.416;13.548;2023-04-09T07:54:54;102339.63;;;6.02;100.00
68594;BME280;55563;52.416;13.548;2023-04-09T07:56:55;102334.34;;;6.17;100.00
68594;BME280;55563;52.416;13.548;2023-04-09T07:58:56;102330.69;;;6.11;100.00
68594;BME280;55563;52.416;13.548;2023-04-09T08:00:56;102330.72;;;5.96;100.00
68594;BME280;55563;52.416;13.548;2023-04-09T08:02:57;102330.78;;;6.24;100.00
68594;BME280;55563;52.416;13.548;2023-04-09T08:04:58;102340.91;;;6.55;100.00
68594;BME280;55563;52.416;13.548;2023-04-09T08:06:59;102339.03;;;6.49;100.00
68594;BME280;55563;52.416;13.548;2023-04-09T08:09:00;102333.13;;;6.40;100.00
68594;BME280;55563;52.416;13.548;2023-04-09T08:11:01;102340.50;;;6.09;100.00
68594;BME280;55563;52.416;13.548;2023-04-09T08:13:01;102341.94;;;6.88;100.00
68594;BME280;55563;52.416;13.548;2023-04-09T08:15:03;102343.63;;;7.03;100.00
68594;BME280;55563;52.416;13.548;2023-04-09T08:17:04;102343.78;;;6.94;100.00
68594;BME280;55563;52.416;13.548;2023-04-09T08:19:04;102353.22;;;6.61;100.00
68594;BME280;55563;52.416;13.548;2023-04-09T08:21:06;102348.31;;;6.86;100.00
68594;BME280;55563;52.416;13.548;2023-04-09T08:23:06;102354.94;;;7.10;100.00
68594;BME280;55563;52.416;13.548;2023-04-09T08:25:07;102353.03;;;6.97;100.00
68594;BME280;55563;52.416;13.548;2023-04-09T08:27:08;102354.19;;;7.22;100.00
68594;BME280;55563;52.416;13.548;2023-04-09T08:29:10;102353.22;;;6.95;100.00
68594;BME280;55563;52.416;13.548;2023-04-09T08:31:12;102353.34;;;7.63;100.00
68594;BME280;55563;52.416;13.548;2023-04-09T08:33:13;102355.44;;;7.80;100.00
68594;BME280;55563;52.416;13.548;2023-04-09T08:35:13;102339.59;;;7.41;100.00
68594;BME280;55563;52.416;13.548;2023-04-09T08:37:15;102347.25;;;7.42;100.00
68594;BME280;55563;52.416;13.548;2023-04-09T08:39:16;102352.78;;;7.26;100.00
68594;BME280;55563;52.416;13.548;2023-04-09T08:41:22;102347.44;;;7.41;100.00
68594;BME280;55563;52.416;13.548;2023-04-09T08:43:25;102355.22;;;6.93;100.00
68594;BME280;55563;52.416;13.548;2023-04-09T08:45:27;102339.25;;;7.64;100.00
68594;BME280;55563;52.416;13.548;2023-04-09T08:47:28;102346.19;;;7.91;100.00
68594;BME280;55563;52.416;13.548;2023-04-09T08:49:29;102335.13;;;8.02;100.00
68594;BME280;55563;52.416;13.548;2023-04-09T08:51:30;102338.53;;;8.16;100.00
68594;BME280;55563;52.416;13.548;2023-04-09T08:53:31;102335.97;;;8.62;100.00
68594;BME280;55563;52.416;13.548;2023-04-09T08:55:33;102336.38;;;8.65;100.00
68594;BME280;55563;52.416;13.548;2023-04-09T08:57:38;102341.00;;;8.77;100.00
68594;BME280;55563;52.416;13.548;2023-04-09T08:59:38;102342.72;;;9.15;100.00
68594;BME280;55563;52.416;13.548;2023-04-09T09:01:39;102336.97;;;8.54;100.00
68594;BME280;55563;52.416;13.548;2023-04-09T09:04:00;102334.13;;;8.69;100.00
68594;BME280;55563;52.416;13.548;2023-04-09T09:06:03;102328.31;;;8.60;100.00
68594;BME280;55563;52.416;13.548;2023-04-09T09:08:06;102332.06;;;9.10;100.00
68594;BME280;55563;52.416;13.548;2023-04-09T09:10:07;102327.84;;;9.47;100.00
68594;BME280;55563;52.416;13.548;2023-04-09T09:12:08;102323.13;;;9.25;100.00
68594;BME280;55563;52.416;13.548;2023-04-09T09:14:10;102324.44;;;9.47;100.00
68594;BME280;55563;52.416;13.548;2023-04-09T09:16:13;102322.19;;;9.06;100.00
68594;BME280;55563;52.416;13.548;2023-04-09T09:18:14;102326.09;;;8.70;100.00
68594;BME280;55563;52.416;13.548;2023-04-09T09:20:18;102318.69;;;9.25;100.00
68594;BME280;55563;52.416;13.548;2023-04-09T09:22:20;102311.56;;;9.32;100.00
68594;BME280;55563;52.416;13.548;2023-04-09T09:24:21;102317.16;;;9.49;100.00
68594;BME280;55563;52.416;13.548;2023-04-09T09:26:26;102311.84;;;9.62;100.00
68594;BME280;55563;52.416;13.548;2023-04-09T09:28:33;102319.56;;;9.50;100.00
68594;BME280;55563;52.416;13.548;2023-04-09T09:30:35;102322.38;;;9.55;100.00
68594;BME280;55563;52.416;13.548;2023-04-09T09:32:36;102313.84;;;9.22;100.00
68594;BME280;55563;52.416;13.548;2023-04-09T09:34:37;102309.16;;;9.31;100.00
68594;BME280;55563;52.416;13.548;2023-04-09T09:36:38;102306.16;;;9.27;100.00
68594;BME280;55563;52.416;13.548;2023-04-09T09:38:56;102313.84;;;9.22;100.00
68594;BME280;55563;52.416;13.548;2023-04-09T09:40:57;102311.56;;;9.77;100.00
68594;BME280;55563;52.416;13.548;2023-04-09T09:43:12;102307.38;;;9.94;100.00
68594;BME280;55563;52.416;13.548;2023-04-09T09:45:16;102299.50;;;9.94;100.00
68594;BME280;55563;52.416;13.548;2023-04-09T09:47:19;102309.91;;;9.82;100.00
68594;BME280;55563;52.416;13.548;2023-04-09T09:49:21;102306.28;;;10.08;100.00
68594;BME280;55563;52.416;13.548;2023-04-09T09:51:24;102299.75;;;10.17;100.00
68594;BME280;55563;52.416;13.548;2023-04-09T09:53:28;102294.59;;;10.04;100.00
68594;BME280;55563;52.416;13.548;2023-04-09T09:55:32;102298.19;;;10.10;100.00
68594;BME280;55563;52.416;13.548;2023-04-09T09:57:38;102296.56;;;10.40;100.00
68594;BME280;55563;52.416;13.548;2023-04-09T09:59:41;102298.56;;;10.63;100.00
68594;BME280;55563;52.416;13.548;2023-04-09T10:01:44;102306.59;;;10.25;100.00
68594;BME280;55563;52.416;13.548;2023-04-09T10:03:48;102302.19;;;10.19;100.00
68594;BME280;55563;52.416;13.548;2023-04-09T10:05:51;102300.63;;;10.79;100.00
68594;BME280;55563;52.416;13.548;2023-04-09T10:07:56;102304.09;;;10.55;100.00
68594;BME280;55563;52.416;13.548;2023-04-09T10:09:58;102299.28;;;10.70;100.00
68594;BME280;55563;52.416;13.548;2023-04-09T10:12:00;102303.34;;;10.47;100.00
68594;BME280;55563;52.416;13.548;2023-04-09T10:14:03;102303.53;;;10.71;100.00
68594;BME280;55563;52.416;13.548;2023-04-09T10:16:06;102293.66;;;10.48;100.00
68594;BME280;55563;52.416;13.548;2023-04-09T10:18:08;102297.22;;;10.35;100.00
68594;BME280;55563;52.416;13.548;2023-04-09T10:20:13;102302.13;;;10.50;100.00
68594;BME280;55563;52.416;13.548;2023-04-09T10:22:17;102301.38;;;10.43;100.00
68594;BME280;55563;52.416;13.548;2023-04-09T10:24:21;102303.84;;;10.38;100.00
68594;BME280;55563;52.416;13.548;2023-04-09T10:26:24;102299.59;;;10.80;100.00
68594;BME280;55563;52.416;13.548;2023-04-09T10:28:27;102298.25;;;10.89;100.00
68594;BME280;55563;52.416;13.548;2023-04-09T10:30:32;102304.25;;;11.14;100.00
68594;BME280;55563;52.416;13.548;2023-04-09T10:32:34;102303.88;;;10.74;100.00
68594;BME280;55563;52.416;13.548;2023-04-09T10:34:38;102305.34;;;10.70;100.00
68594;BME280;55563;52.416;13.548;2023-04-09T10:36:42;102307.13;;;10.94;100.00
68594;BME280;55563;52.416;13.548;2023-04-09T10:38:45;102309.06;;;10.20;100.00